createdAt,value
2023-05-19T00:01:07.310Z,3.70
2023-05-19T00:03:37.405Z,3.43
2023-05-19T00:06:06.832Z,3.93
2023-05-19T00:08:35.895Z,2.63
2023-05-19T00:11:04.770Z,3.43
2023-05-19T00:13:34.550Z,2.90
2023-05-19T00:16:06.078Z,3.37
2023-05-19T00:18:35.052Z,2.33
2023-05-19T00:21:03.380Z,3.33
2023-05-19T00:23:32.026Z,2.90
2023-05-19T00:26:00.409Z,3.40
2023-05-19T00:28:28.925Z,3.37
2023-05-19T00:30:57.218Z,3.47
2023-05-19T00:33:27.306Z,2.90
2023-05-19T00:35:55.590Z,2.93
2023-05-19T00:38:24.129Z,3.77
2023-05-19T00:40:52.753Z,3.00
2023-05-19T00:43:21.378Z,3.27
2023-05-19T00:45:49.773Z,3.90
2023-05-19T00:48:18.512Z,3.20
2023-05-19T00:50:48.246Z,3.70
2023-05-19T00:53:19.688Z,3.83
2023-05-19T00:55:49.128Z,2.93
2023-05-19T00:58:18.146Z,3.60
2023-05-19T01:00:47.105Z,3.33
2023-05-19T01:03:20.564Z,2.70
2023-05-19T01:05:53.644Z,3.03
2023-05-19T01:08:22.261Z,3.33
2023-05-19T01:10:50.859Z,3.17
2023-05-19T01:13:19.498Z,3.70
2023-05-19T01:16:01.018Z,2.73
2023-05-19T01:18:42.642Z,2.60
2023-05-19T01:21:49.177Z,3.30
2023-05-19T01:24:35.268Z,3.20
2023-05-19T01:27:25.047Z,3.37
2023-05-19T01:30:16.372Z,3.33
2023-05-19T01:32:46.607Z,2.83
2023-05-19T01:35:17.792Z,3.30
2023-05-19T01:37:47.680Z,3.07
2023-05-19T01:40:16.904Z,3.63
2023-05-19T01:42:46.404Z,4.07
2023-05-19T01:45:17.928Z,2.70
2023-05-19T01:47:53.307Z,2.67
2023-05-19T01:50:22.322Z,3.53
2023-05-19T01:52:51.781Z,3.53
2023-05-19T01:55:21.236Z,3.80
2023-05-19T01:58:01.870Z,4.57
2023-05-19T02:00:47.253Z,3.70
2023-05-19T02:03:27.596Z,4.57
2023-05-19T02:06:04.890Z,4.30
2023-05-19T02:08:44.784Z,4.77
2023-05-19T02:11:21.683Z,3.90
2023-05-19T02:13:54.307Z,3.40
2023-05-19T02:16:28.680Z,4.33
2023-05-19T02:18:57.369Z,3.33
2023-05-19T02:21:26.538Z,4.87
2023-05-19T02:23:56.635Z,3.57
2023-05-19T02:26:26.176Z,3.60
2023-05-19T02:28:55.099Z,4.70
2023-05-19T02:31:25.234Z,4.20
2023-05-19T02:33:53.714Z,4.10
2023-05-19T02:36:22.290Z,5.60
2023-05-19T02:38:51.306Z,4.70
2023-05-19T02:41:19.941Z,4.80
2023-05-19T02:43:48.311Z,4.73
2023-05-19T02:46:17.035Z,4.43
2023-05-19T02:48:46.747Z,5.03
2023-05-19T02:51:15.339Z,3.67
2023-05-19T02:53:44.242Z,4.20
2023-05-19T02:56:12.921Z,4.07
2023-05-19T02:58:43.066Z,4.27
2023-05-19T03:01:12.819Z,4.13
2023-05-19T03:03:41.158Z,4.10
2023-05-19T03:06:11.277Z,5.10
2023-05-19T03:08:41.631Z,3.90
2023-05-19T03:11:11.189Z,3.60
2023-05-19T03:13:39.415Z,3.77
2023-05-19T03:16:08.438Z,5.10
2023-05-19T03:18:37.218Z,4.43
2023-05-19T03:21:06.153Z,3.80
2023-05-19T03:23:35.805Z,4.50
2023-05-19T03:26:04.410Z,4.77
2023-05-19T03:28:32.779Z,4.10
2023-05-19T03:31:01.402Z,5.03
2023-05-19T03:33:35.046Z,3.63
2023-05-19T03:36:04.580Z,3.97
2023-05-19T03:38:38.281Z,5.40
2023-05-19T03:41:07.053Z,5.00
2023-05-19T03:43:36.031Z,4.10
2023-05-19T03:46:07.247Z,4.90
2023-05-19T03:48:58.419Z,5.30
2023-05-19T03:51:50.082Z,4.37
2023-05-19T03:54:39.973Z,4.50
2023-05-19T03:57:08.681Z,4.67
2023-05-19T03:59:37.262Z,4.97
2023-05-19T04:02:08.151Z,4.83
2023-05-19T04:04:37.359Z,4.20
2023-05-19T04:07:07.152Z,4.87
2023-05-19T04:09:35.608Z,4.00
2023-05-19T04:12:06.102Z,4.60
2023-05-19T04:14:34.379Z,4.77
2023-05-19T04:17:02.883Z,4.90
2023-05-19T04:19:31.269Z,5.07
2023-05-19T04:21:59.934Z,4.33
2023-05-19T04:24:28.265Z,4.33
2023-05-19T04:27:02.412Z,5.60
2023-05-19T04:29:32.641Z,4.53
2023-05-19T04:32:01.959Z,3.73
2023-05-19T04:34:30.719Z,4.97
2023-05-19T04:36:59.389Z,5.83
2023-05-19T04:39:28.246Z,8.27
2023-05-19T04:41:56.873Z,8.97
2023-05-19T04:44:25.513Z,6.70
2023-05-19T04:46:58.426Z,6.13
2023-05-19T04:49:27.088Z,5.13
2023-05-19T04:51:56.606Z,7.37
2023-05-19T04:54:29.134Z,15.60
2023-05-19T04:56:58.072Z,8.97
2023-05-19T04:59:29.302Z,6.87
2023-05-19T05:01:59.724Z,5.10
2023-05-19T05:04:30.958Z,8.97
2023-05-19T05:06:59.605Z,6.70
2023-05-19T05:09:28.056Z,5.27
2023-05-19T05:11:59.412Z,5.13
2023-05-19T05:14:28.588Z,8.67
2023-05-19T05:16:59.313Z,6.53
2023-05-19T05:19:28.452Z,6.57
2023-05-19T05:21:58.507Z,5.23
2023-05-19T05:24:27.819Z,5.67
2023-05-19T05:27:01.371Z,7.40
2023-05-19T05:29:32.934Z,6.60
2023-05-19T05:32:04.556Z,7.97
2023-05-19T05:34:33.213Z,6.07
2023-05-19T05:37:01.987Z,5.83
2023-05-19T05:39:31.744Z,5.57
2023-05-19T05:42:00.991Z,6.27
2023-05-19T05:44:29.305Z,8.65
2023-05-19T05:46:59.918Z,7.00
2023-05-19T05:49:30.931Z,6.13
2023-05-19T05:54:33.135Z,6.73
2023-05-19T05:57:02.608Z,6.03
2023-05-19T05:59:33.793Z,7.28
2023-05-19T06:02:02.960Z,5.63
2023-05-19T06:04:33.639Z,5.13
2023-05-19T06:07:02.352Z,5.00
2023-05-19T06:09:34.820Z,4.93
2023-05-19T06:12:06.587Z,5.05
2023-05-19T06:14:40.589Z,5.53
2023-05-19T06:17:17.456Z,4.78
2023-05-19T06:19:47.299Z,5.65
2023-05-19T06:22:16.854Z,4.68
2023-05-19T06:24:45.826Z,4.38
2023-05-19T06:27:15.103Z,5.55
2023-05-19T06:29:43.383Z,4.65
2023-05-19T06:32:12.381Z,4.25
2023-05-19T06:34:41.469Z,5.05
2023-05-19T06:37:14.852Z,5.07
2023-05-19T06:39:43.100Z,5.03
2023-05-19T06:42:11.773Z,4.75
2023-05-19T06:44:53.535Z,3.97
2023-05-19T06:47:22.228Z,4.20
2023-05-19T06:49:55.045Z,4.47
2023-05-19T06:52:28.299Z,4.13
2023-05-19T06:54:56.793Z,4.97
2023-05-19T06:57:25.568Z,4.70
2023-05-19T06:59:54.173Z,4.35
2023-05-19T07:02:22.998Z,5.03
2023-05-19T07:04:51.609Z,4.32
2023-05-19T07:07:20.494Z,4.40
2023-05-19T07:09:50.560Z,3.95
2023-05-19T07:12:19.728Z,3.92
2023-05-19T07:14:48.178Z,3.75
2023-05-19T07:17:18.743Z,4.30
2023-05-19T07:19:47.654Z,4.07
2023-05-19T07:22:16.584Z,4.03
2023-05-19T07:24:45.024Z,3.92
2023-05-19T07:27:15.155Z,3.83
2023-05-19T07:29:43.364Z,3.83
2023-05-19T07:32:12.182Z,4.07
2023-05-19T07:34:41.309Z,4.00
2023-05-19T07:37:10.351Z,4.63
2023-05-19T07:39:38.714Z,3.75
2023-05-19T07:42:07.452Z,5.15
2023-05-19T07:44:37.337Z,4.50
2023-05-19T07:47:06.592Z,3.55
2023-05-19T07:49:34.952Z,4.88
2023-05-19T07:52:03.799Z,4.15
2023-05-19T07:54:32.070Z,4.45
2023-05-19T07:57:01.035Z,4.57
2023-05-19T07:59:29.437Z,4.63
2023-05-19T08:02:00.122Z,5.47
2023-05-19T08:04:28.806Z,8.82
2023-05-19T08:06:57.559Z,7.68
2023-05-19T08:09:26.079Z,4.60
2023-05-19T08:11:54.868Z,5.45
2023-05-19T08:14:23.196Z,5.90
2023-05-19T08:16:52.093Z,8.57
2023-05-19T08:19:21.921Z,5.80
2023-05-19T08:21:50.931Z,5.80
2023-05-19T08:24:19.290Z,4.22
2023-05-19T08:26:48.106Z,15.95
2023-05-19T08:29:16.474Z,8.30
2023-05-19T08:31:45.076Z,6.13
2023-05-19T08:34:13.504Z,7.18
2023-05-19T08:36:45.245Z,6.57
2023-05-19T08:39:16.253Z,6.90
2023-05-19T08:41:45.567Z,5.15
2023-05-19T08:44:14.983Z,4.63
2023-05-19T08:46:44.316Z,5.22
2023-05-19T08:49:16.062Z,6.35
2023-05-19T08:51:50.010Z,4.35
2023-05-19T08:54:20.738Z,3.72
2023-05-19T08:56:50.029Z,4.70
2023-05-19T08:59:19.577Z,3.65
2023-05-19T09:01:50.098Z,5.28
2023-05-19T09:04:18.905Z,4.10
2023-05-19T09:06:50.312Z,4.00
2023-05-19T09:09:18.782Z,3.80
2023-05-19T09:11:47.958Z,3.50
2023-05-19T09:14:16.283Z,3.53
2023-05-19T09:16:49.795Z,3.80
2023-05-19T09:19:18.323Z,3.42
2023-05-19T09:21:58.628Z,3.55
2023-05-19T09:24:27.206Z,3.60
2023-05-19T09:26:59.237Z,2.95
2023-05-19T09:29:28.539Z,2.97
2023-05-19T09:32:01.594Z,3.65
2023-05-19T09:34:30.111Z,4.00
2023-05-19T09:37:00.824Z,3.65
2023-05-19T09:39:29.824Z,3.67
2023-05-19T09:41:58.938Z,3.70
2023-05-19T09:44:29.827Z,3.47
2023-05-19T09:46:59.799Z,3.45
2023-05-19T09:49:29.673Z,3.10
2023-05-19T09:52:01.091Z,3.70
2023-05-19T09:54:32.254Z,3.78
2023-05-19T09:57:02.201Z,3.70
2023-05-19T09:59:33.464Z,3.53
2023-05-19T10:02:03.380Z,3.80
2023-05-19T10:04:32.758Z,3.25
2023-05-19T10:07:05.705Z,3.47
2023-05-19T10:09:35.130Z,3.42
2023-05-19T10:12:04.400Z,3.42
2023-05-19T10:14:32.870Z,3.95
2023-05-19T10:17:01.580Z,3.95
2023-05-19T10:19:30.293Z,3.92
2023-05-19T10:21:59.012Z,4.10
2023-05-19T10:24:28.788Z,4.55
2023-05-19T10:27:03.508Z,3.63
2023-05-19T10:29:36.508Z,2.75
2023-05-19T10:32:11.439Z,4.50
2023-05-19T10:35:10.552Z,4.13
2023-05-19T10:37:46.619Z,3.40
2023-05-19T10:40:23.089Z,3.45
2023-05-19T10:43:07.455Z,3.08
2023-05-19T10:45:45.850Z,3.38
2023-05-19T10:48:16.645Z,2.90
2023-05-19T10:50:46.614Z,3.22
2023-05-19T10:53:18.341Z,3.60
2023-05-19T10:55:56.632Z,3.53
2023-05-19T10:58:49.881Z,2.47
2023-05-19T11:01:19.129Z,2.67
2023-05-19T11:03:49.600Z,2.92
2023-05-19T11:06:22.684Z,2.97
2023-05-19T11:08:55.337Z,2.63
2023-05-19T11:11:26.305Z,2.47
2023-05-19T11:13:56.120Z,3.08
2023-05-19T11:16:32.477Z,3.40
2023-05-19T11:19:01.979Z,3.42
2023-05-19T11:21:50.482Z,3.15
2023-05-19T11:24:35.830Z,3.33
2023-05-19T11:27:23.831Z,3.00
2023-05-19T11:29:53.739Z,2.90
2023-05-19T11:32:23.115Z,3.47
2023-05-19T11:34:52.096Z,3.60
2023-05-19T11:37:20.885Z,3.38
2023-05-19T11:39:49.546Z,3.85
2023-05-19T11:42:18.016Z,3.47
2023-05-19T11:44:48.210Z,3.45
2023-05-19T11:47:17.552Z,3.63
2023-05-19T11:49:46.666Z,2.92
2023-05-19T11:52:15.548Z,3.45
2023-05-19T11:54:44.211Z,2.95
2023-05-19T11:57:13.947Z,5.57
2023-05-19T11:59:45.587Z,5.88
2023-05-19T12:02:23.009Z,4.07
2023-05-19T12:04:53.028Z,9.43
2023-05-19T12:07:23.883Z,7.05
2023-05-19T12:09:53.623Z,3.92
2023-05-19T12:12:23.734Z,5.53
2023-05-19T12:14:53.605Z,3.83
2023-05-19T12:17:24.335Z,3.35
2023-05-19T12:19:53.485Z,4.03
2023-05-19T12:22:21.968Z,3.50
2023-05-19T12:24:51.722Z,3.45
2023-05-19T12:27:21.381Z,5.07
2023-05-19T12:29:53.723Z,3.25
2023-05-19T12:32:29.230Z,3.63
2023-05-19T12:34:58.508Z,3.38
2023-05-19T12:37:29.987Z,3.40
2023-05-19T12:39:59.344Z,3.90
2023-05-19T12:42:31.378Z,2.85
2023-05-19T12:45:03.166Z,3.17
2023-05-19T12:47:35.855Z,3.65
2023-05-19T12:50:07.980Z,2.85
2023-05-19T12:52:42.789Z,2.75
2023-05-19T12:55:12.432Z,2.88
2023-05-19T12:57:44.227Z,4.15
2023-05-19T13:00:17.499Z,2.60
2023-05-19T13:03:05.281Z,2.95
2023-05-19T13:05:36.947Z,3.20
2023-05-19T13:08:07.699Z,3.38
2023-05-19T13:10:37.615Z,4.15
2023-05-19T13:13:06.789Z,4.57
2023-05-19T13:15:37.888Z,3.78
2023-05-19T13:18:09.594Z,2.95
2023-05-19T13:20:39.550Z,4.10
2023-05-19T13:23:07.927Z,3.33
2023-05-19T13:25:36.646Z,2.70
2023-05-19T13:28:05.964Z,3.95
2023-05-19T13:30:35.659Z,3.00
2023-05-19T13:33:04.328Z,3.35
2023-05-19T13:35:37.209Z,3.72
2023-05-19T13:38:06.797Z,2.95
2023-05-19T13:40:35.774Z,3.15
2023-05-19T13:43:04.940Z,3.65
2023-05-19T13:45:33.471Z,3.65
2023-05-19T13:48:02.141Z,3.53
2023-05-19T13:50:30.828Z,4.63
2023-05-19T13:53:00.705Z,3.75
2023-05-19T13:55:29.342Z,3.92
2023-05-19T13:57:57.829Z,4.07
2023-05-19T14:00:26.572Z,3.47
2023-05-19T14:02:55.023Z,3.92
2023-05-19T14:05:23.649Z,3.70
2023-05-19T14:07:52.131Z,3.95
2023-05-19T14:10:22.722Z,3.65
2023-05-19T14:13:18.390Z,3.80
2023-05-19T14:15:39.792Z,2.97
2023-05-19T14:18:08.180Z,3.35
2023-05-19T14:20:36.794Z,6.88
2023-05-19T14:23:05.326Z,12.32
2023-05-19T14:25:35.698Z,11.85
2023-05-19T14:28:03.998Z,14.80
2023-05-19T14:30:32.752Z,6.65
2023-05-19T14:33:01.357Z,15.30
2023-05-19T14:35:30.415Z,9.07
2023-05-19T14:37:58.884Z,5.70
2023-05-19T14:40:27.481Z,7.10
2023-05-19T14:42:57.289Z,10.85
2023-05-19T14:45:25.841Z,6.25
2023-05-19T14:47:54.067Z,5.20
2023-05-19T14:50:22.948Z,5.20
2023-05-19T14:52:51.468Z,6.13
2023-05-19T14:55:20.111Z,4.95
2023-05-19T14:57:48.574Z,3.40
2023-05-19T15:00:19.116Z,4.50
2023-05-19T15:02:47.897Z,4.25
2023-05-19T15:05:17.310Z,4.47
2023-05-19T15:07:45.736Z,4.60
2023-05-19T15:10:14.377Z,3.38
2023-05-19T15:12:42.863Z,4.38
2023-05-19T15:15:12.299Z,4.82
2023-05-19T15:17:42.083Z,4.68
2023-05-19T15:20:11.514Z,4.90
2023-05-19T15:22:39.749Z,3.30
2023-05-19T15:25:09.987Z,3.85
2023-05-19T15:27:38.293Z,4.00
2023-05-19T15:30:07.812Z,4.38
2023-05-19T15:32:36.176Z,4.35
2023-05-19T15:35:06.882Z,4.65
2023-05-19T15:37:35.119Z,4.85
2023-05-19T15:40:04.559Z,3.85
2023-05-19T15:42:32.763Z,3.58
2023-05-19T15:45:01.366Z,4.97
2023-05-19T15:47:29.881Z,4.78
2023-05-19T15:49:58.664Z,4.07
2023-05-19T15:52:29.198Z,4.72
2023-05-19T15:54:59.118Z,3.75
2023-05-19T15:57:27.424Z,4.75
2023-05-19T15:59:56.044Z,4.35
2023-05-19T16:02:24.476Z,5.07
2023-05-19T16:04:53.097Z,5.25
2023-05-19T16:07:23.704Z,4.50
2023-05-19T16:09:53.979Z,3.80
2023-05-19T16:12:22.286Z,4.25
2023-05-19T16:14:51.107Z,4.35
2023-05-19T16:17:19.550Z,3.97
2023-05-19T16:19:48.250Z,4.28
2023-05-19T16:22:18.041Z,4.40
2023-05-19T16:24:46.695Z,4.82
2023-05-19T16:27:16.457Z,3.85
2023-05-19T16:29:45.171Z,4.35
2023-05-19T16:32:13.694Z,4.20
2023-05-19T16:34:42.246Z,3.97
2023-05-19T16:37:10.694Z,4.50
2023-05-19T16:39:40.174Z,3.90
2023-05-19T16:42:08.568Z,4.18
2023-05-19T16:44:38.527Z,3.95
2023-05-19T16:47:06.850Z,4.57
2023-05-19T16:49:35.603Z,3.67
2023-05-19T16:52:04.031Z,5.30
2023-05-19T16:54:32.595Z,4.50
2023-05-19T16:57:01.030Z,4.40
2023-05-19T16:59:29.943Z,4.95
2023-05-19T17:01:59.563Z,4.80
2023-05-19T17:04:30.649Z,4.57
2023-05-19T17:06:59.292Z,4.18
2023-05-19T17:09:27.956Z,5.28
2023-05-19T17:11:56.555Z,4.20
2023-05-19T17:14:25.335Z,4.85
2023-05-19T17:16:53.793Z,5.32
2023-05-19T17:19:24.008Z,4.32
2023-05-19T17:21:52.959Z,4.72
2023-05-19T17:24:21.825Z,4.88
2023-05-19T17:26:50.302Z,5.50
2023-05-19T17:29:19.168Z,5.13
2023-05-19T17:31:47.550Z,6.22
2023-05-19T17:34:16.427Z,4.70
2023-05-19T17:36:46.221Z,4.90
2023-05-19T17:39:14.951Z,6.00
2023-05-19T17:41:43.723Z,4.60
2023-05-19T17:44:12.927Z,5.00
2023-05-19T17:46:41.326Z,5.90
2023-05-19T17:49:10.578Z,6.53
2023-05-19T17:51:39.787Z,5.43
2023-05-19T17:54:10.568Z,5.68
2023-05-19T17:56:43.149Z,5.05
2023-05-19T17:59:12.835Z,4.60
2023-05-19T18:01:41.724Z,5.75
2023-05-19T18:04:12.612Z,10.45
2023-05-19T18:06:45.174Z,11.63
2023-05-19T18:09:17.828Z,13.02
2023-05-19T18:11:46.763Z,16.98
2023-05-19T18:14:16.382Z,8.43
2023-05-19T18:16:45.026Z,7.85
2023-05-19T18:19:13.708Z,6.20
2023-05-19T18:21:42.444Z,5.45
2023-05-19T18:24:11.361Z,6.60
2023-05-19T18:26:42.071Z,4.88
2023-05-19T18:29:11.060Z,3.95
2023-05-19T18:31:39.678Z,5.22
2023-05-19T18:34:08.792Z,4.10
2023-05-19T18:36:37.207Z,4.28
2023-05-19T18:39:05.987Z,5.30
2023-05-19T18:41:34.405Z,4.18
2023-05-19T18:44:06.250Z,4.53
2023-05-19T18:46:34.888Z,5.13
2023-05-19T18:49:04.333Z,4.45
2023-05-19T18:51:33.540Z,4.03
2023-05-19T18:54:03.037Z,4.45
2023-05-19T18:56:32.011Z,4.90
2023-05-19T18:59:00.849Z,4.75
2023-05-19T19:01:30.737Z,4.35
2023-05-19T19:03:59.592Z,5.25
2023-05-19T19:06:28.171Z,5.68
2023-05-19T19:08:56.864Z,5.10
2023-05-19T19:11:25.221Z,14.75
2023-05-19T19:13:55.517Z,20.15
2023-05-19T19:16:24.257Z,7.30
2023-05-19T19:18:54.520Z,6.65
2023-05-19T19:21:24.069Z,8.07
2023-05-19T19:23:54.866Z,11.02
2023-05-19T19:26:25.012Z,11.60
2023-05-19T19:28:54.234Z,8.45
2023-05-19T19:31:22.767Z,6.03
2023-05-19T19:33:51.387Z,6.20
2023-05-19T19:36:21.272Z,5.32
2023-05-19T19:38:50.115Z,5.13
2023-05-19T19:41:19.820Z,5.93
2023-05-19T19:43:48.595Z,5.57
2023-05-19T19:46:17.084Z,5.68
2023-05-19T19:48:45.937Z,5.43
2023-05-19T19:51:14.449Z,6.35
2023-05-19T19:53:44.750Z,6.20
2023-05-19T19:56:13.317Z,6.63
2023-05-19T19:58:42.043Z,6.60
2023-05-19T20:01:10.958Z,5.85
2023-05-19T20:03:39.671Z,6.25
2023-05-19T20:06:08.518Z,20.13
2023-05-19T20:08:37.359Z,11.15
2023-05-19T20:11:07.325Z,7.10
2023-05-19T20:13:36.034Z,5.75
2023-05-19T20:16:04.530Z,5.63
2023-05-19T20:18:33.212Z,5.43
2023-05-19T20:21:01.497Z,5.60
2023-05-19T20:23:31.157Z,5.50
2023-05-19T20:26:11.988Z,5.78
2023-05-19T20:28:43.294Z,5.50
2023-05-19T20:31:11.850Z,5.75
2023-05-19T20:33:40.627Z,5.47
2023-05-19T20:36:10.928Z,6.70
2023-05-19T20:38:39.663Z,5.95
2023-05-19T20:41:08.282Z,6.82
2023-05-19T20:43:36.927Z,6.03
2023-05-19T20:46:06.684Z,6.10
2023-05-19T20:48:35.426Z,7.63
2023-05-19T20:51:03.945Z,7.07
2023-05-19T20:53:32.412Z,7.30
2023-05-19T20:56:00.675Z,6.80
2023-05-19T20:58:30.346Z,6.13
2023-05-19T21:00:58.952Z,6.68
2023-05-19T21:03:30.435Z,7.22
2023-05-19T21:05:59.545Z,6.85
2023-05-19T21:08:28.332Z,7.65
2023-05-19T21:10:56.739Z,7.65
2023-05-19T21:13:25.405Z,7.20
2023-05-19T21:15:53.841Z,6.15
2023-05-19T21:18:22.598Z,7.72
2023-05-19T21:20:52.312Z,6.38
2023-05-19T21:23:21.091Z,7.53
2023-05-19T21:25:50.867Z,7.43
2023-05-19T21:28:19.738Z,7.57
2023-05-19T21:30:49.455Z,6.43
2023-05-19T21:33:18.284Z,8.30
2023-05-19T21:35:47.193Z,7.45
2023-05-19T21:38:23.979Z,6.15
2023-05-19T21:40:53.369Z,7.72
2023-05-19T21:43:22.519Z,6.28
2023-05-19T21:45:51.067Z,6.90
2023-05-19T21:48:19.753Z,7.97
2023-05-19T21:50:53.531Z,7.38
2023-05-19T21:53:23.624Z,6.45
2023-05-19T21:55:52.126Z,6.70
2023-05-19T21:58:20.952Z,7.43
2023-05-19T22:00:50.627Z,7.45
2023-05-19T22:03:19.366Z,6.55
2023-05-19T22:05:50.080Z,7.10
2023-05-19T22:08:19.667Z,8.00
2023-05-19T22:10:51.815Z,8.15
2023-05-19T22:13:20.798Z,7.88
2023-05-19T22:15:49.191Z,7.93
2023-05-19T22:18:18.184Z,7.80
2023-05-19T22:20:46.430Z,8.23
2023-05-19T22:23:15.067Z,6.97
2023-05-19T22:25:43.342Z,8.13
2023-05-19T22:28:13.468Z,8.45
2023-05-19T22:30:42.701Z,7.18
2023-05-19T22:33:11.973Z,9.45
2023-05-19T22:35:40.859Z,8.43
2023-05-19T22:38:10.687Z,7.43
2023-05-19T22:40:39.664Z,8.55
2023-05-19T22:43:08.158Z,9.70
2023-05-19T22:45:37.999Z,7.68
2023-05-19T22:48:07.788Z,7.82
2023-05-19T22:50:36.364Z,7.60
2023-05-19T22:53:05.053Z,7.72
2023-05-19T22:55:33.533Z,7.78
2023-05-19T22:58:02.603Z,9.35
2023-05-19T23:00:31.027Z,7.00
2023-05-19T23:03:01.415Z,9.70
2023-05-19T23:05:29.732Z,7.63
2023-05-19T23:07:58.347Z,8.43
2023-05-19T23:10:27.153Z,8.20
2023-05-19T23:12:56.034Z,7.47
2023-05-19T23:15:24.360Z,7.32
2023-05-19T23:17:53.052Z,8.35
2023-05-19T23:20:22.713Z,9.15
2023-05-19T23:22:51.389Z,8.38
2023-05-19T23:25:19.937Z,7.95
2023-05-19T23:27:48.557Z,8.77
2023-05-19T23:30:17.075Z,7.80
2023-05-19T23:32:45.646Z,8.88
2023-05-19T23:35:15.265Z,14.23
2023-05-19T23:37:45.281Z,8.70
2023-05-19T23:40:14.216Z,19.95
2023-05-19T23:42:44.584Z,8.93
2023-05-19T23:45:13.120Z,9.18
2023-05-19T23:47:41.882Z,9.35
2023-05-19T23:50:11.395Z,7.82
2023-05-19T23:52:39.851Z,8.38
2023-05-19T23:55:12.685Z,9.00
2023-05-19T23:57:41.340Z,53.15
